Time;durP1;ratioP1;P1;durP2;ratioP2;P2;SDS_P1;SDS_P2;PMS_P1;PMS_P2;Temp;Humidity;BMP_temperature;BMP_pressure;BME280_temperature;BME280_humidity;BME280_pressure;Samples;Min_cycle;Max_cycle;Signal;HPM_P1;HPM_P2
2022/11/24 00:02:02;;;;;;;1999.90;999.90;;;;;;;2.36;100.00;97077.22;5092427;28;20030;-73
2022/11/24 00:04:27;;;;;;;1999.90;999.90;;;;;;;2.33;100.00;97072.38;5104106;28;20434;-72
2022/11/24 00:06:53;;;;;;;1999.90;999.90;;;;;;;2.30;100.00;97075.59;5091344;28;20071;-73
2022/11/24 00:09:18;;;;;;;1999.90;999.90;;;;;;;2.25;100.00;97075.59;5073926;28;20465;-74
2022/11/24 00:11:44;;;;;;;1999.90;999.90;;;;;;;2.24;100.00;97074.75;5092507;28;20024;-74
2022/11/24 00:14:10;;;;;;;1999.90;999.90;;;;;;;2.32;100.00;97063.44;5092252;28;20024;-73
2022/11/24 00:16:37;;;;;;;1999.90;999.90;;;;;;;2.31;100.00;97059.16;5092172;28;20483;-74
2022/11/24 00:19:04;;;;;;;1999.90;999.90;;;;;;;2.24;100.00;97063.16;5093581;28;20067;-75
2022/11/24 00:21:31;;;;;;;1999.90;999.90;;;;;;;2.20;100.00;97072.84;5111638;28;20048;-76
2022/11/24 00:23:56;;;;;;;1999.90;999.90;;;;;;;2.21;100.00;97069.09;5112467;28;20027;-77
2022/11/24 00:26:24;;;;;;;1999.90;999.90;;;;;;;2.14;100.00;97072.84;5112414;28;20538;-76
2022/11/24 00:28:51;;;;;;;1999.90;999.90;;;;;;;2.07;100.00;97080.34;5112576;28;20472;-76
2022/11/24 00:31:28;;;;;;;1999.90;999.90;;;;;;;2.04;100.00;97080.88;5112374;28;20118;-76
2022/11/24 00:33:55;;;;;;;1999.90;999.90;;;;;;;2.04;100.00;97070.09;5113194;28;20026;-75
2022/11/24 00:36:23;;;;;;;1999.90;999.90;;;;;;;1.93;100.00;97068.44;5112371;28;20106;-75
2022/11/24 00:39:06;;;;;;;1999.90;999.90;;;;;;;1.95;100.00;97068.97;5112243;28;20042;-75
2022/11/24 00:41:32;;;;;;;1999.90;999.90;;;;;;;2.04;100.00;97077.38;5109843;28;20070;-77
2022/11/24 00:43:58;;;;;;;1999.90;999.90;;;;;;;2.15;100.00;97077.16;5094371;28;20084;-77
2022/11/24 00:46:24;;;;;;;1999.90;999.90;;;;;;;2.17;100.00;97077.69;5112221;28;20020;-76
2022/11/24 00:48:50;;;;;;;1999.90;999.90;;;;;;;2.24;100.00;97073.94;5112192;28;20027;-75
2022/11/24 00:51:17;;;;;;;1999.90;999.90;;;;;;;2.27;100.00;97079.63;5112090;28;20027;-75
2022/11/24 00:53:43;;;;;;;1999.90;999.90;;;;;;;2.30;100.00;97086.38;5112400;28;20370;-76
2022/11/24 00:56:10;;;;;;;1999.90;999.90;;;;;;;2.28;100.00;97096.63;5092469;28;20073;-75
2022/11/24 00:58:35;;;;;;;1999.90;999.90;;;;;;;2.32;100.00;97092.34;5092038;28;20023;-75
2022/11/24 01:01:25;;;;;;;1999.90;999.90;;;;;;;2.37;100.00;97093.16;5093251;28;20107;-75
2022/11/24 01:03:51;;;;;;;1999.90;999.90;;;;;;;2.42;100.00;97103.16;5097699;28;20036;-75
2022/11/24 01:06:19;;;;;;;1999.90;999.90;;;;;;;2.49;100.00;97101.84;5094215;28;20043;-75
2022/11/24 01:08:45;;;;;;;1999.90;999.90;;;;;;;2.50;100.00;97100.78;5092355;28;20054;-75
2022/11/24 01:11:17;;;;;;;1999.90;999.90;;;;;;;2.53;100.00;97112.91;5092401;28;20016;-76
2022/11/24 01:13:45;;;;;;;1999.90;999.90;;;;;;;2.58;100.00;97118.31;5091972;28;20501;-77
2022/11/24 01:16:15;;;;;;;1999.90;999.90;;;;;;;2.59;100.00;97109.97;5092244;28;20036;-76
2022/11/24 01:18:40;;;;;;;1999.90;999.90;;;;;;;2.73;100.00;97118.38;5092429;28;20028;-76
2022/11/24 01:21:05;;;;;;;1999.90;999.90;;;;;;;2.76;100.00;97125.94;5092329;28;20089;-75
2022/11/24 01:23:31;;;;;;;1999.90;999.90;;;;;;;2.60;100.00;97124.28;5093993;28;20031;-74
2022/11/24 01:25:56;;;;;;;1999.90;999.90;;;;;;;2.32;100.00;97130.13;5091565;28;20024;-74
2022/11/24 01:28:21;;;;;;;1999.90;999.90;;;;;;;2.48;100.00;97134.47;5090879;28;20427;-74
2022/11/24 01:30:59;;;;;;;1999.90;999.90;;;;;;;2.44;100.00;97128.00;5090672;28;20028;-76
2022/11/24 01:33:25;;;;;;;1999.90;999.90;;;;;;;2.47;100.00;97132.88;5095562;28;20020;-75
2022/11/24 01:35:50;;;;;;;1999.90;999.90;;;;;;;2.54;100.00;97133.41;5111180;28;20440;-76
2022/11/24 01:38:15;;;;;;;1999.90;999.90;;;;;;;2.58;100.00;97145.31;5111389;28;20369;-75
2022/11/24 01:40:41;;;;;;;1999.90;999.90;;;;;;;2.65;100.00;97145.88;5111777;28;20601;-76
2022/11/24 01:43:20;;;;;;;1999.90;999.90;;;;;;;2.72;100.00;97151.03;5112698;28;20110;-76
2022/11/24 01:45:47;;;;;;;1999.90;999.90;;;;;;;2.58;100.00;97153.41;5112175;28;20472;-75
2022/11/24 01:48:18;;;;;;;1999.90;999.90;;;;;;;2.54;100.00;97144.22;5112173;28;20055;-76
2022/11/24 01:50:45;;;;;;;1999.90;999.90;;;;;;;2.62;100.00;97149.94;5111135;28;20028;-75
2022/11/24 01:53:12;;;;;;;1999.90;999.90;;;;;;;2.54;100.00;97152.31;5111080;28;20081;-75
2022/11/24 01:55:38;;;;;;;1999.90;999.90;;;;;;;2.70;100.00;97168.31;5110936;28;20028;-75
2022/11/24 01:58:25;;;;;;;1999.90;999.90;;;;;;;2.82;100.00;97173.47;5110882;28;20022;-75
2022/11/24 02:00:51;;;;;;;1999.90;999.90;;;;;;;2.84;100.00;97170.50;5110942;28;20024;-75
2022/11/24 02:03:22;;;;;;;1999.90;999.90;;;;;;;2.93;100.00;97175.13;5111031;28;20031;-75
2022/11/24 02:06:06;;;;;;;1999.90;999.90;;;;;;;2.91;100.00;97174.59;5110804;28;20043;-75
2022/11/24 02:08:58;;;;;;;1999.90;999.90;;;;;;;3.05;100.00;97177.59;5110511;28;20151;-76
2022/11/24 02:11:27;;;;;;;1999.90;999.90;;;;;;;3.11;100.00;97181.94;5063120;28;20081;-76
2022/11/24 02:13:53;;;;;;;1999.90;999.90;;;;;;;3.08;100.00;97172.47;5111035;28;20114;-75
2022/11/24 02:16:19;;;;;;;1999.90;999.90;;;;;;;3.04;100.00;97171.38;5110978;28;20415;-76
2022/11/24 02:18:45;;;;;;;1999.90;999.90;;;;;;;3.10;100.00;97164.13;5110786;28;20028;-75
2022/11/24 02:21:13;;;;;;;1999.90;999.90;;;;;;;3.00;100.00;97173.00;5110700;28;20031;-75
2022/11/24 02:23:55;;;;;;;1999.90;999.90;;;;;;;2.98;100.00;97185.13;5110806;28;20031;-77
2022/11/24 02:26:28;;;;;;;1999.90;999.90;;;;;;;3.00;100.00;97181.09;5110934;28;20056;-76
2022/11/24 02:28:53;;;;;;;1999.90;999.90;;;;;;;3.15;100.00;97193.81;5108220;28;20118;-76
2022/11/24 02:31:19;;;;;;;1999.90;999.90;;;;;;;3.15;100.00;97200.06;5102389;28;20123;-75
2022/11/24 02:33:44;;;;;;;1999.90;999.90;;;;;;;3.14;100.00;97198.41;5114511;28;20027;-76
2022/11/24 02:36:10;;;;;;;1999.90;999.90;;;;;;;3.17;100.00;97197.06;5102027;28;20020;-76
2022/11/24 02:38:35;;;;;;;1999.90;999.90;;;;;;;3.26;100.00;97202.78;5093897;28;20032;-75
2022/11/24 02:41:08;;;;;;;1999.90;999.90;;;;;;;3.22;100.00;97194.41;5094204;28;20020;-76
2022/11/24 02:43:49;;;;;;;1999.90;999.90;;;;;;;3.23;100.00;97196.00;5094639;28;20023;-75
2022/11/24 02:46:14;;;;;;;1999.90;999.90;;;;;;;3.35;100.00;97193.88;5094543;28;20160;-76
2022/11/24 02:48:40;;;;;;;1999.90;999.90;;;;;;;3.39;100.00;97204.94;5108360;28;20039;-75
2022/11/24 02:51:05;;;;;;;1999.90;999.90;;;;;;;3.33;100.00;97197.91;5114046;28;20028;-76
2022/11/24 02:53:31;;;;;;;1999.90;999.90;;;;;;;3.34;100.00;97196.84;5114283;28;20393;-76
2022/11/24 02:55:56;;;;;;;1999.90;999.90;;;;;;;3.30;100.00;97201.97;5095740;28;20077;-75
2022/11/24 02:58:21;;;;;;;1999.90;999.90;;;;;;;3.30;100.00;97198.44;5113888;28;20472;-75
2022/11/24 03:00:47;;;;;;;1999.90;999.90;;;;;;;3.28;100.00;97206.00;5113970;28;20388;-76
2022/11/24 03:03:13;;;;;;;1999.90;999.90;;;;;;;3.37;100.00;97218.75;5113775;28;20058;-74
2022/11/24 03:05:38;;;;;;;1999.90;999.90;;;;;;;3.33;100.00;97219.53;5113872;28;20366;-75
2022/11/24 03:08:04;;;;;;;1999.90;999.90;;;;;;;3.31;100.00;97225.22;5113794;28;20039;-75
2022/11/24 03:10:29;;;;;;;1999.90;999.90;;;;;;;3.34;100.00;97231.97;5114556;28;20032;-76
2022/11/24 03:12:54;;;;;;;1999.90;999.90;;;;;;;3.45;100.00;97233.59;5119120;28;20084;-76
2022/11/24 03:15:21;;;;;;;1999.90;999.90;;;;;;;3.44;100.00;97235.50;5118133;28;20031;-76
2022/11/24 03:17:46;;;;;;;1999.90;999.90;;;;;;;3.38;100.00;97230.38;5113851;28;20023;-76
2022/11/24 03:20:12;;;;;;;1999.90;999.90;;;;;;;3.40;100.00;97237.13;5113445;28;20476;-76
2022/11/24 03:22:37;;;;;;;1999.90;999.90;;;;;;;3.40;100.00;97239.00;5095380;28;20027;-75
2022/11/24 03:25:03;;;;;;;1999.90;999.90;;;;;;;3.44;100.00;97240.91;5099605;28;20035;-75
2022/11/24 03:27:29;;;;;;;1999.90;999.90;;;;;;;3.42;100.00;97253.06;5092954;28;20047;-76
2022/11/24 03:29:55;;;;;;;1999.90;999.90;;;;;;;3.39;100.00;97254.41;5092997;28;20495;-75
2022/11/24 03:32:20;;;;;;;1999.90;999.90;;;;;;;3.39;100.00;97253.59;5092853;28;20065;-77
2022/11/24 03:34:46;;;;;;;1999.90;999.90;;;;;;;3.37;100.00;97253.06;5092853;28;20023;-76
2022/11/24 03:37:11;;;;;;;1999.90;999.90;;;;;;;3.15;100.00;97251.38;5092817;28;20358;-76
2022/11/24 03:39:36;;;;;;;1999.90;999.90;;;;;;;3.20;100.00;97256.78;5074461;28;20491;-75
2022/11/24 03:42:02;;;;;;;1999.90;999.90;;;;;;;3.32;100.00;97258.47;5092973;28;20389;-75
2022/11/24 03:44:27;;;;;;;1999.90;999.90;;;;;;;3.27;100.00;97263.81;5092696;28;20366;-75
2022/11/24 03:46:52;;;;;;;1999.90;999.90;;;;;;;3.21;100.00;97268.41;5092728;28;20028;-76
2022/11/24 03:49:18;;;;;;;1999.90;999.90;;;;;;;3.26;100.00;97270.34;5092578;28;20043;-75
2022/11/24 03:51:43;;;;;;;1999.90;999.90;;;;;;;3.31;100.00;97273.03;5092548;28;20469;-75
2022/11/24 03:54:09;;;;;;;1999.90;999.90;;;;;;;3.30;100.00;97271.41;5092303;28;20024;-76
2022/11/24 03:56:34;;;;;;;1999.90;999.90;;;;;;;3.31;100.00;97281.16;5092599;28;20020;-75
2022/11/24 03:58:59;;;;;;;1999.90;999.90;;;;;;;3.33;100.00;97279.78;5092412;28;20038;-74
2022/11/24 04:01:25;;;;;;;1999.90;999.90;;;;;;;3.30;100.00;97279.50;5092510;28;20023;-76
2022/11/24 04:03:50;;;;;;;1999.90;999.90;;;;;;;3.26;100.00;97289.25;5092348;28;20751;-75
2022/11/24 04:06:16;;;;;;;1999.90;999.90;;;;;;;3.27;100.00;97288.97;5092164;28;20035;-77
2022/11/24 04:08:41;;;;;;;1999.90;999.90;;;;;;;3.21;100.00;97290.84;5091928;28;20044;-76
2022/11/24 04:11:06;;;;;;;1999.90;999.90;;;;;;;3.23;100.00;97293.25;5092074;28;20489;-76
2022/11/24 04:13:31;;;;;;;1999.90;999.90;;;;;;;3.24;100.00;97298.41;5111581;28;20035;-76
2022/11/24 04:15:57;;;;;;;1999.90;999.90;;;;;;;3.19;100.00;97298.41;5111948;28;20038;-75
2022/11/24 04:18:22;;;;;;;1999.90;999.90;;;;;;;3.19;100.00;97298.41;5112509;28;20032;-74
2022/11/24 04:20:49;;;;;;;1999.90;999.90;;;;;;;3.14;100.00;97295.66;5112222;28;20027;-74
2022/11/24 04:23:15;;;;;;;1999.90;999.90;;;;;;;3.13;100.00;97307.53;5112628;28;20108;-75
2022/11/24 04:25:42;;;;;;;1999.90;999.90;;;;;;;3.03;100.00;97310.22;5112934;28;20053;-76
2022/11/24 04:28:07;;;;;;;1999.90;999.90;;;;;;;3.06;100.00;97320.50;5112176;28;20095;-76
2022/11/24 04:30:33;;;;;;;1999.90;999.90;;;;;;;3.14;100.00;97338.91;5112204;28;20106;-76
2022/11/24 04:32:58;;;;;;;1999.90;999.90;;;;;;;3.19;100.00;97336.25;5112071;28;20027;-75
2022/11/24 04:35:24;;;;;;;1999.90;999.90;;;;;;;3.28;100.00;97339.25;5111943;28;20016;-76
2022/11/24 04:37:49;;;;;;;1999.90;999.90;;;;;;;3.35;100.00;97341.69;5112022;28;20036;-76
2022/11/24 04:40:15;;;;;;;1999.90;999.90;;;;;;;3.20;100.00;97335.13;5111863;28;20019;-76
2022/11/24 04:42:41;;;;;;;1999.90;999.90;;;;;;;3.20;100.00;97337.84;5112043;28;20785;-75
2022/11/24 04:45:07;;;;;;;1999.90;999.90;;;;;;;3.22;100.00;97334.91;5112046;28;20035;-74
2022/11/24 04:47:32;;;;;;;1999.90;999.90;;;;;;;3.31;100.00;97340.59;5111716;28;20106;-76
2022/11/24 04:49:57;;;;;;;1999.90;999.90;;;;;;;3.32;100.00;97344.94;5111662;28;20047;-76
2022/11/24 04:52:24;;;;;;;1999.90;999.90;;;;;;;3.28;100.00;97351.94;5092879;28;20051;-76
2022/11/24 04:54:49;;;;;;;1999.90;999.90;;;;;;;3.32;100.00;97350.34;5111660;28;20028;-75
2022/11/24 04:57:20;;;;;;;1999.90;999.90;;;;;;;3.31;100.00;97343.31;5111580;28;20062;-74
2022/11/24 04:59:45;;;;;;;1999.90;999.90;;;;;;;3.28;100.00;97350.03;5111742;28;20031;-75
2022/11/24 05:02:11;;;;;;;1999.90;999.90;;;;;;;3.20;100.00;97343.25;5111814;28;20464;-76
2022/11/24 05:04:36;;;;;;;1999.90;999.90;;;;;;;3.18;100.00;97350.81;5111781;28;20392;-76
2022/11/24 05:07:02;;;;;;;1999.90;999.90;;;;;;;3.24;100.00;97360.56;5111551;28;20031;-76
2022/11/24 05:09:28;;;;;;;1999.90;999.90;;;;;;;3.25;100.00;97355.97;5111363;28;20044;-75
2022/11/24 05:11:53;;;;;;;1999.90;999.90;;;;;;;3.24;100.00;97359.75;5111880;28;20038;-75
2022/11/24 05:14:18;;;;;;;1999.90;999.90;;;;;;;3.21;100.00;97349.47;5111974;28;20031;-75
2022/11/24 05:16:44;;;;;;;1999.90;999.90;;;;;;;3.32;100.00;97355.75;5111599;28;20030;-76
2022/11/24 05:19:09;;;;;;;1999.90;999.90;;;;;;;3.24;100.00;97357.03;5111933;28;20032;-76
2022/11/24 05:21:34;;;;;;;1999.90;999.90;;;;;;;3.28;100.00;97351.94;5111341;28;20380;-77
2022/11/24 05:24:00;;;;;;;1999.90;999.90;;;;;;;3.23;100.00;97364.34;5108471;28;20088;-79
2022/11/24 05:26:26;;;;;;;1999.90;999.90;;;;;;;3.18;100.00;97364.31;5092533;28;20449;-75
2022/11/24 05:28:51;;;;;;;1999.90;999.90;;;;;;;3.11;100.00;97366.44;5104378;28;20084;-76
2022/11/24 05:31:17;;;;;;;1999.90;999.90;;;;;;;3.12;100.00;97368.06;5111115;28;20027;-76
2022/11/24 05:33:42;;;;;;;1999.90;999.90;;;;;;;3.13;100.00;97372.38;5111063;28;20106;-75
2022/11/24 05:36:51;;;;;;;1999.90;999.90;;;;;;;3.07;100.00;97386.94;5110913;28;20525;-75
2022/11/24 05:38:53;;;;;;;;;;;;;;;3.21;100.00;97385.41;5110965;28;20444;-75
2022/11/24 05:41:19;;;;;;;;;;;;;;;3.15;100.00;97394.56;5095038;28;19916;-76
2022/11/24 05:43:44;;;;;;;1999.90;999.90;;;;;;;3.18;100.00;97398.63;5090937;28;19912;-76
2022/11/24 05:46:09;;;;;;;1999.90;999.90;;;;;;;3.13;100.00;97412.91;5090715;28;20064;-76
2022/11/24 05:48:35;;;;;;;1999.90;999.90;;;;;;;3.06;100.00;97406.94;5092408;28;20032;-76
2022/11/24 05:51:00;;;;;;;1999.90;999.90;;;;;;;2.91;100.00;97398.75;5092876;28;20056;-76
2022/11/24 05:53:26;;;;;;;1999.90;999.90;;;;;;;2.90;100.00;97415.19;5090354;28;20028;-75
2022/11/24 05:55:51;;;;;;;1999.90;999.90;;;;;;;2.91;100.00;97409.56;5090199;28;20040;-76
2022/11/24 05:58:17;;;;;;;1999.90;999.90;;;;;;;2.92;100.00;97407.63;5090213;28;20465;-75
2022/11/24 06:00:42;;;;;;;1999.90;999.90;;;;;;;2.85;100.00;97401.66;5090587;28;20036;-75
2022/11/24 06:03:09;;;;;;;1999.90;999.90;;;;;;;2.87;100.00;97405.72;5091139;28;20051;-75
2022/11/24 06:05:35;;;;;;;1999.90;999.90;;;;;;;2.99;100.00;97408.22;5093987;28;20028;-76
2022/11/24 06:08:00;;;;;;;1999.90;999.90;;;;;;;2.96;100.00;97409.56;5109190;28;20432;-74
2022/11/24 06:10:26;;;;;;;1999.90;999.90;;;;;;;2.82;100.00;97411.06;5115185;28;20036;-75
2022/11/24 06:12:52;;;;;;;1999.90;999.90;;;;;;;2.78;100.00;97410.00;5117563;28;20589;-77
2022/11/24 06:15:17;;;;;;;1999.90;999.90;;;;;;;2.63;100.00;97426.06;5116878;28;20384;-75
2022/11/24 06:17:43;;;;;;;1999.90;999.90;;;;;;;2.63;100.00;97426.06;5115469;28;20569;-74
2022/11/24 06:20:10;;;;;;;1999.90;999.90;;;;;;;2.69;100.00;97427.75;5115044;28;20032;-75
2022/11/24 06:22:36;;;;;;;1999.90;999.90;;;;;;;2.73;100.00;97431.53;5117678;28;20041;-75
2022/11/24 06:25:02;;;;;;;1999.90;999.90;;;;;;;2.67;100.00;97437.97;5114658;28;20463;-74
2022/11/24 06:27:27;;;;;;;1999.90;999.90;;;;;;;2.60;100.00;97451.69;5096164;28;20385;-72
2022/11/24 06:29:53;;;;;;;1999.90;999.90;;;;;;;2.58;100.00;97447.59;5114734;28;20075;-76
2022/11/24 06:32:18;;;;;;;1999.90;999.90;;;;;;;2.80;100.00;97436.72;5113816;28;20495;-75
2022/11/24 06:34:44;;;;;;;1999.90;999.90;;;;;;;2.81;100.00;97430.25;5103131;28;20072;-74
2022/11/24 06:37:10;;;;;;;1999.90;999.90;;;;;;;2.81;100.00;97436.47;5102651;28;20077;-73
2022/11/24 06:39:38;;;;;;;1999.90;999.90;;;;;;;2.80;100.00;97434.84;5098176;28;20473;-73
2022/11/24 06:42:04;;;;;;;1999.90;999.90;;;;;;;2.82;100.00;97445.41;5096659;28;20115;-74
2022/11/24 06:44:29;;;;;;;1999.90;999.90;;;;;;;2.69;100.00;97449.34;5092417;28;20111;-75
2022/11/24 06:46:54;;;;;;;1999.90;999.90;;;;;;;2.69;100.00;97449.34;5088481;28;20076;-73
2022/11/24 06:49:20;;;;;;;1999.90;999.90;;;;;;;2.59;100.00;97458.16;5109959;28;20555;-74
2022/11/24 06:51:45;;;;;;;1999.90;999.90;;;;;;;2.68;100.00;97458.50;5097448;28;20032;-74
2022/11/24 06:54:16;;;;;;;1999.90;999.90;;;;;;;2.68;100.00;97459.31;5099448;28;20058;-74
2022/11/24 06:56:42;;;;;;;1999.90;999.90;;;;;;;2.75;100.00;97478.00;5092190;28;20078;-74
2022/11/24 06:59:15;;;;;;;1999.90;999.90;;;;;;;2.90;100.00;97483.53;5094325;28;20024;-74
2022/11/24 07:01:40;;;;;;;1999.90;999.90;;;;;;;2.77;100.00;97478.56;5102060;28;20026;-74
2022/11/24 07:04:06;;;;;;;1999.90;999.90;;;;;;;2.76;100.00;97482.31;5104277;28;20363;-74
2022/11/24 07:06:31;;;;;;;1999.90;999.90;;;;;;;2.86;100.00;97485.09;5098248;28;20491;-74
2022/11/24 07:08:57;;;;;;;1999.90;999.90;;;;;;;2.90;100.00;97494.34;5095069;28;20044;-74
2022/11/24 07:11:23;;;;;;;1999.90;999.90;;;;;;;2.93;100.00;97498.41;5101992;28;20024;-73
2022/11/24 07:13:50;;;;;;;1999.90;999.90;;;;;;;2.92;100.00;97502.16;5092972;28;20100;-74
2022/11/24 07:16:23;;;;;;;1999.90;999.90;;;;;;;2.86;100.00;97498.63;5102127;28;20030;-74
2022/11/24 07:18:50;;;;;;;1999.90;999.90;;;;;;;2.85;100.00;97496.19;5102340;28;20436;-74
2022/11/24 07:21:17;;;;;;;1999.90;999.90;;;;;;;2.80;100.00;97504.22;5101213;28;20460;-74
2022/11/24 07:23:42;;;;;;;1999.90;999.90;;;;;;;2.87;100.00;97511.06;5084718;28;20023;-73
2022/11/24 07:26:09;;;;;;;1999.90;999.90;;;;;;;2.91;100.00;97514.88;5102330;28;20047;-75
2022/11/24 07:28:35;;;;;;;1999.90;999.90;;;;;;;2.88;100.00;97517.28;5107539;28;20036;-74
2022/11/24 07:31:10;;;;;;;1999.90;999.90;;;;;;;2.97;100.00;97521.13;5104565;28;20024;-74
2022/11/24 07:33:36;;;;;;;1999.90;999.90;;;;;;;3.04;100.00;97522.53;5106732;28;20028;-76
2022/11/24 07:36:03;;;;;;;1999.90;999.90;;;;;;;3.05;100.00;97534.97;5075671;28;20043;-74
2022/11/24 07:38:29;;;;;;;1999.90;999.90;;;;;;;3.09;100.00;97530.69;5092628;28;20089;-74
2022/11/24 07:41:02;;;;;;;1999.90;999.90;;;;;;;3.13;100.00;97525.59;5092410;28;20485;-73
2022/11/24 07:43:29;;;;;;;1999.90;999.90;;;;;;;3.13;100.00;97537.19;5112373;28;20365;-74
2022/11/24 07:45:54;;;;;;;1999.90;999.90;;;;;;;3.12;100.00;97538.28;5113015;28;20102;-74
2022/11/24 07:48:20;;;;;;;1999.90;999.90;;;;;;;3.13;100.00;97548.00;5111773;28;20467;-74
2022/11/24 07:50:45;;;;;;;1999.90;999.90;;;;;;;3.06;100.00;97558.22;5112959;28;20035;-74
2022/11/24 07:53:10;;;;;;;1999.90;999.90;;;;;;;2.89;100.00;97551.28;5112512;28;20020;-74
2022/11/24 07:55:36;;;;;;;1999.90;999.90;;;;;;;3.11;100.00;97558.25;5112444;28;20027;-73
2022/11/24 07:58:01;;;;;;;1999.90;999.90;;;;;;;3.23;100.00;97558.88;5109339;28;20023;-74
2022/11/24 08:00:27;;;;;;;1999.90;999.90;;;;;;;3.34;100.00;97554.38;5112471;28;20484;-74
2022/11/24 08:02:52;;;;;;;1999.90;999.90;;;;;;;3.37;100.00;97569.25;5112309;28;20121;-73
2022/11/24 08:05:18;;;;;;;1999.90;999.90;;;;;;;3.45;100.00;97571.47;5112240;28;20035;-74
2022/11/24 08:07:43;;;;;;;1999.90;999.90;;;;;;;3.46;100.00;97563.13;5112215;28;20104;-74
2022/11/24 08:10:09;;;;;;;1999.90;999.90;;;;;;;3.47;100.00;97569.34;5112111;28;20028;-74
2022/11/24 08:12:34;;;;;;;1999.90;999.90;;;;;;;3.47;100.00;97572.88;5112508;28;20038;-74
2022/11/24 08:14:59;;;;;;;1999.90;999.90;;;;;;;3.13;100.00;97574.22;5095462;28;20024;-74
2022/11/24 08:17:27;;;;;;;1999.90;999.90;;;;;;;3.18;100.00;97572.38;5111433;28;20020;-74
2022/11/24 08:19:52;;;;;;;1999.90;999.90;;;;;;;3.10;100.00;97583.63;5112172;28;20379;-75
2022/11/24 08:22:17;;;;;;;1999.90;999.90;;;;;;;3.21;100.00;97568.31;5112127;28;20106;-74
2022/11/24 08:24:46;;;;;;;1999.90;999.90;;;;;;;3.33;100.00;97570.84;5093648;28;20357;-74
2022/11/24 08:27:12;;;;;;;1999.90;999.90;;;;;;;3.35;100.00;97579.53;5111152;28;20037;-74
2022/11/24 08:29:38;;;;;;;1999.90;999.90;;;;;;;3.38;100.00;97581.72;5111830;28;20039;-74
2022/11/24 08:32:03;;;;;;;1999.90;999.90;;;;;;;3.37;100.00;97583.59;5112001;28;20030;-74
2022/11/24 08:34:28;;;;;;;1999.90;999.90;;;;;;;3.35;100.00;97587.63;5111774;28;20118;-74
2022/11/24 08:36:54;;;;;;;1999.90;999.90;;;;;;;3.46;100.00;97583.94;5111859;28;20115;-74
2022/11/24 08:39:19;;;;;;;1999.90;999.90;;;;;;;3.46;100.00;97586.63;5111867;28;20110;-74
2022/11/24 08:41:45;;;;;;;1999.90;999.90;;;;;;;3.73;100.00;97590.88;5111685;28;20020;-74
2022/11/24 08:44:13;;;;;;;1999.90;999.90;;;;;;;3.76;100.00;97594.94;5111791;28;20096;-74
2022/11/24 08:46:39;;;;;;;1999.90;999.90;;;;;;;3.69;100.00;97595.19;5111799;28;20025;-74
2022/11/24 08:49:05;;;;;;;1999.90;999.90;;;;;;;3.56;100.00;97600.22;5111641;28;20078;-75
2022/11/24 08:51:30;;;;;;;1999.90;999.90;;;;;;;3.49;100.00;97588.81;5103480;28;20503;-74
2022/11/24 08:53:58;;;;;;;1999.90;999.90;;;;;;;3.68;100.00;97598.97;5090801;28;20028;-75
2022/11/24 08:56:28;;;;;;;1999.90;999.90;;;;;;;3.69;100.00;97599.78;5090507;28;20047;-74
2022/11/24 08:58:54;;;;;;;1999.90;999.90;;;;;;;3.71;100.00;97609.25;5105013;28;20024;-75
2022/11/24 09:01:20;;;;;;;1999.90;999.90;;;;;;;3.67;100.00;97612.72;5108265;28;20036;-74
2022/11/24 09:03:47;;;;;;;1999.90;999.90;;;;;;;3.42;100.00;97601.72;5090942;28;20081;-74
2022/11/24 09:06:12;;;;;;;1999.90;999.90;;;;;;;3.49;100.00;97615.84;5091010;28;20036;-75
2022/11/24 09:08:38;;;;;;;1999.90;999.90;;;;;;;3.46;100.00;97619.88;5090335;28;20059;-75
2022/11/24 09:11:14;;;;;;;1999.90;999.90;;;;;;;3.61;100.00;97620.00;5090812;28;20028;-74
2022/11/24 09:13:39;;;;;;;1999.90;999.90;;;;;;;3.79;100.00;97633.09;5090823;28;20028;-74
2022/11/24 09:16:11;;;;;;;1999.90;999.90;;;;;;;3.96;100.00;97621.31;5090790;28;20028;-74
2022/11/24 09:18:37;;;;;;;1999.90;999.90;;;;;;;4.10;100.00;97617.88;5089742;28;20024;-74
2022/11/24 09:21:17;;;;;;;1999.90;999.90;;;;;;;4.28;100.00;97620.16;5110594;28;20038;-74
2022/11/24 09:23:44;;;;;;;1999.90;999.90;;;;;;;4.27;100.00;97626.66;5110157;28;20077;-74
2022/11/24 09:26:15;;;;;;;1999.90;999.90;;;;;;;4.14;100.00;97619.00;5110861;28;20392;-74
2022/11/24 09:28:41;;;;;;;1999.90;999.90;;;;;;;4.17;100.00;97623.06;5110643;28;20020;-74
2022/11/24 09:31:09;;;;;;;1999.90;999.90;;;;;;;4.08;100.00;97614.63;5092666;28;20532;-74
2022/11/24 09:33:35;;;;;;;1999.90;999.90;;;;;;;4.11;100.00;97618.69;5110674;28;20036;-74
2022/11/24 09:36:01;;;;;;;1999.90;999.90;;;;;;;4.15;100.00;97620.63;5110612;28;20470;-75
2022/11/24 09:38:26;;;;;;;1999.90;999.90;;;;;;;4.13;100.00;97627.38;5110598;28;20031;-75
2022/11/24 09:40:52;;;;;;;1999.90;999.90;;;;;;;4.17;100.00;97621.16;5114491;28;20115;-75
2022/11/24 09:43:36;;;;;;;1999.90;999.90;;;;;;;4.32;100.00;97621.25;5116892;28;20023;-74
2022/11/24 09:46:20;;;;;;;1999.90;999.90;;;;;;;4.44;100.00;97622.94;5110619;28;20023;-75
2022/11/24 09:48:49;;;;;;;1999.90;999.90;;;;;;;4.52;100.00;97630.53;5110578;28;20035;-75
2022/11/24 09:51:17;;;;;;;1999.90;999.90;;;;;;;4.58;100.00;97629.47;5108975;28;20059;-75
2022/11/24 09:53:50;;;;;;;1999.90;999.90;;;;;;;4.57;100.00;97627.88;5108867;28;20032;-75
2022/11/24 09:56:20;;;;;;;1999.90;999.90;;;;;;;4.75;100.00;97635.53;5109461;28;20028;-75
2022/11/24 09:59:01;;;;;;;1999.90;999.90;;;;;;;4.76;100.00;97632.53;5109627;28;20027;-75
2022/11/24 10:01:38;;;;;;;1999.90;999.90;;;;;;;4.73;100.00;97632.28;5105632;28;20028;-75
2022/11/24 10:04:14;;;;;;;1999.90;999.90;;;;;;;4.56;100.00;97645.19;5095843;28;20024;-75
2022/11/24 10:06:47;;;;;;;1999.90;999.90;;;;;;;4.60;100.00;97638.19;5089547;28;20058;-74
2022/11/24 10:09:37;;;;;;;1999.90;999.90;;;;;;;4.73;100.00;97643.91;5089326;28;20051;-74
2022/11/24 10:12:39;;;;;;;1999.90;999.90;;;;;;;4.80;100.00;97649.06;5089434;28;20066;-75
2022/11/24 10:15:24;;;;;;;1999.90;999.90;;;;;;;4.92;100.00;97652.34;5089670;28;20046;-75
2022/11/24 10:18:13;;;;;;;1999.90;999.90;;;;;;;5.01;100.00;97648.03;5089433;28;20107;-74
2022/11/24 10:21:12;;;;;;;1999.90;999.90;;;;;;;5.28;100.00;97653.25;5089633;28;20127;-75
2022/11/24 10:23:58;;;;;;;1999.90;999.90;;;;;;;5.43;100.00;97653.28;5037582;28;20127;-75
2022/11/24 10:26:32;;;;;;;1999.90;999.90;;;;;;;5.59;100.00;97644.06;5087970;28;20071;-74
2022/11/24 10:28:58;;;;;;;1999.90;999.90;;;;;;;5.78;100.00;97660.63;5109322;28;20032;-74
2022/11/24 10:31:23;;;;;;;1999.90;999.90;;;;;;;5.91;100.00;97654.69;5109963;28;20020;-75
2022/11/24 10:33:49;;;;;;;1999.90;999.90;;;;;;;5.86;100.00;97649.25;5109487;28;20031;-75
2022/11/24 10:36:42;;;;;;;1999.90;999.90;;;;;;;5.69;100.00;97652.22;5109789;28;20047;-75
2022/11/24 10:39:27;;;;;;;1999.90;999.90;;;;;;;5.74;100.00;97663.06;5109562;28;20046;-76
2022/11/24 10:42:04;;;;;;;1999.90;999.90;;;;;;;5.40;100.00;97668.19;5109688;28;20039;-76
2022/11/24 10:44:30;;;;;;;1999.90;999.90;;;;;;;5.40;100.00;97668.19;5109628;28;20032;-75
2022/11/24 10:46:55;;;;;;;1999.90;999.90;;;;;;;5.21;100.00;97642.69;5109484;28;20031;-75
2022/11/24 10:49:26;;;;;;;1999.90;999.90;;;;;;;5.21;100.00;97644.56;5110248;28;20031;-76
2022/11/24 10:52:00;;;;;;;1999.90;999.90;;;;;;;5.55;100.00;97648.41;5113926;28;20376;-75
2022/11/24 10:54:26;;;;;;;1999.90;999.90;;;;;;;5.66;100.00;97658.19;5109701;28;20462;-75
2022/11/24 10:56:52;;;;;;;1999.90;999.90;;;;;;;5.53;100.00;97656.00;5092856;28;20460;-74
2022/11/24 10:59:28;;;;;;;1999.90;999.90;;;;;;;5.50;100.00;97663.88;5092955;28;20031;-75